Time;durP1;ratioP1;P1;durP2;ratioP2;P2;SDS_P1;SDS_P2;PMS_P1;PMS_P2;Temp;Humidity;BMP_temperature;BMP_pressure;BME280_temperature;BME280_humidity;BME280_pressure;Samples;Min_cycle;Max_cycle;Signal;HPM_P1;HPM_P2
2022/01/01 00:00:44;;;;;;;88.82;38.45;;;;;;;;;;5068513;28;20186;-80
2022/01/01 00:03:10;;;;;;;118.90;45.00;;;;;;;;;;5052007;28;20036;-80
2022/01/01 00:05:36;;;;;;;114.07;47.13;;;;;;;;;;5068215;28;20485;-79
2022/01/01 00:08:05;;;;;;;127.32;51.88;;;;;;;;;;5068578;28;20051;-79
2022/01/01 00:10:31;;;;;;;141.38;55.53;;;;;;;;;;5069989;28;20190;-79
2022/01/01 00:12:57;;;;;;;134.88;56.80;;;;;;;;;;5068932;28;20553;-79
2022/01/01 00:15:23;;;;;;;143.95;62.70;;;;;;;;;;5068847;28;20400;-79
2022/01/01 00:17:49;;;;;;;169.85;70.85;;;;;;;;;;5051817;28;20044;-79
2022/01/01 00:20:16;;;;;;;168.93;75.78;;;;;;;;;;5068704;28;20123;-78
2022/01/01 00:22:43;;;;;;;199.68;81.95;;;;;;;;;;5068644;28;20040;-80
2022/01/01 00:25:10;;;;;;;198.35;91.43;;;;;;;;;;5068382;28;20124;-80
2022/01/01 00:27:36;;;;;;;232.13;97.25;;;;;;;;;;5068414;28;20045;-78
2022/01/01 00:30:06;;;;;;;218.32;98.20;;;;;;;;;;5068653;28;20114;-78
2022/01/01 00:32:33;;;;;;;229.23;101.65;;;;;;;;;;5068584;28;20123;-81
2022/01/01 00:34:59;;;;;;;238.68;103.28;;;;;;;;;;5068743;28;20044;-81
2022/01/01 00:37:25;;;;;;;228.27;91.68;;;;;;;;;;5051982;28;20052;-81
2022/01/01 00:39:51;;;;;;;235.63;92.15;;;;;;;;;;5051719;28;20040;-80
2022/01/01 00:42:17;;;;;;;208.13;83.90;;;;;;;;;;5068651;28;20400;-82
2022/01/01 00:44:43;;;;;;;185.40;75.85;;;;;;;;;;5067719;28;20048;-80
2022/01/01 00:47:09;;;;;;;168.93;67.00;;;;;;;;;;5068714;28;20040;-80
2022/01/01 00:49:35;;;;;;;156.65;62.25;;;;;;;;;;5034878;28;20044;-80
2022/01/01 00:52:01;;;;;;;146.05;54.03;;;;;;;;;;5070016;28;20032;-80
2022/01/01 00:54:27;;;;;;;142.25;51.58;;;;;;;;;;5068909;28;20507;-80
2022/01/01 00:56:53;;;;;;;122.75;46.45;;;;;;;;;;5051515;28;20044;-80
2022/01/01 00:59:20;;;;;;;125.43;45.47;;;;;;;;;;5068319;28;20037;-80
2022/01/01 01:01:47;;;;;;;120.00;44.92;;;;;;;;;;5068265;28;20483;-80
2022/01/01 01:04:13;;;;;;;148.20;58.72;;;;;;;;;;5068209;28;20054;-80
2022/01/01 01:06:39;;;;;;;124.97;46.47;;;;;;;;;;5067585;28;20067;-80
2022/01/01 01:09:05;;;;;;;115.03;43.97;;;;;;;;;;5068548;28;20084;-80
2022/01/01 01:11:40;;;;;;;120.07;41.72;;;;;;;;;;5051403;28;20044;-80
2022/01/01 01:14:08;;;;;;;103.27;39.30;;;;;;;;;;5069872;28;20106;-80
2022/01/01 01:16:34;;;;;;;105.82;38.83;;;;;;;;;;5067920;28;20669;-80
2022/01/01 01:19:01;;;;;;;119.20;38.83;;;;;;;;;;5068439;28;20045;-79
2022/01/01 01:21:28;;;;;;;118.45;40.40;;;;;;;;;;5034634;28;20120;-78
2022/01/01 01:23:55;;;;;;;114.03;40.70;;;;;;;;;;5067937;28;20048;-80
2022/01/01 01:26:22;;;;;;;127.05;42.15;;;;;;;;;;5051345;28;20041;-79
2022/01/01 01:28:50;;;;;;;113.10;42.58;;;;;;;;;;5067860;28;20048;-79
2022/01/01 01:31:17;;;;;;;125.80;44.50;;;;;;;;;;5067226;28;20051;-79
2022/01/01 01:33:44;;;;;;;135.38;45.08;;;;;;;;;;5068141;28;20056;-79
2022/01/01 01:36:10;;;;;;;130.23;45.20;;;;;;;;;;5067720;28;20043;-79
2022/01/01 01:38:36;;;;;;;125.70;46.10;;;;;;;;;;5069287;28;20040;-79
2022/01/01 01:41:03;;;;;;;125.88;47.15;;;;;;;;;;5054836;28;20040;-79
2022/01/01 01:43:30;;;;;;;115.55;45.28;;;;;;;;;;5072876;28;20036;-79
2022/01/01 01:46:02;;;;;;;112.05;47.75;;;;;;;;;;5071776;28;20070;-79
2022/01/01 01:48:28;;;;;;;118.18;48.88;;;;;;;;;;5071458;28;20040;-79
2022/01/01 01:50:56;;;;;;;124.30;49.70;;;;;;;;;;5070870;28;20134;-79
2022/01/01 01:53:22;;;;;;;115.03;48.83;;;;;;;;;;5072850;28;20044;-80
2022/01/01 01:55:49;;;;;;;125.82;51.83;;;;;;;;;;5070993;28;20040;-80
2022/01/01 01:58:15;;;;;;;123.63;52.60;;;;;;;;;;5071423;28;20093;-80
2022/01/01 02:03:25;;;;;;;125.30;54.08;;;;;;;;;;5071300;28;20410;-79
2022/01/01 02:05:52;;;;;;;130.90;55.53;;;;;;;;;;5070984;28;20037;-81
2022/01/01 02:08:19;;;;;;;136.57;57.88;;;;;;;;;;5054326;28;20067;-79
2022/01/01 02:10:51;;;;;;;136.98;59.63;;;;;;;;;;5072177;28;20079;-80
2022/01/01 02:13:29;;;;;;;147.13;62.92;;;;;;;;;;5054018;28;20045;-79
2022/01/01 02:18:22;;;;;;;151.70;69.78;;;;;;;;;;5071122;28;20048;-79
2022/01/01 02:20:49;;;;;;;151.07;70.90;;;;;;;;;;5072040;28;20063;-79
2022/01/01 02:23:16;;;;;;;161.38;72.47;;;;;;;;;;5070712;28;20505;-80
2022/01/01 02:25:43;;;;;;;160.07;71.30;;;;;;;;;;5070559;28;20048;-81
2022/01/01 02:28:13;;;;;;;159.60;71.78;;;;;;;;;;5070597;28;20385;-80
2022/01/01 02:30:39;;;;;;;156.20;70.18;;;;;;;;;;5070624;28;20365;-80
2022/01/01 02:33:05;;;;;;;146.88;68.72;;;;;;;;;;5070936;28;20044;-80
2022/01/01 02:35:31;;;;;;;151.85;68.32;;;;;;;;;;5071116;28;20408;-80
2022/01/01 02:37:57;;;;;;;140.30;64.05;;;;;;;;;;5070169;28;20131;-80
2022/01/01 02:40:23;;;;;;;144.63;63.70;;;;;;;;;;5070471;28;20037;-79
2022/01/01 02:42:51;;;;;;;144.32;61.60;;;;;;;;;;5070356;28;20511;-79
2022/01/01 02:45:17;;;;;;;128.82;60.03;;;;;;;;;;5070455;28;20514;-79
2022/01/01 02:47:43;;;;;;;136.93;56.63;;;;;;;;;;5069937;28;20079;-79
2022/01/01 02:50:10;;;;;;;137.85;55.60;;;;;;;;;;5069351;28;20047;-79
2022/01/01 02:52:37;;;;;;;133.68;58.45;;;;;;;;;;5070156;28;20131;-80
2022/01/01 02:55:04;;;;;;;130.70;56.50;;;;;;;;;;5069965;28;20048;-80
2022/01/01 02:57:30;;;;;;;141.02;59.70;;;;;;;;;;5070541;28;20522;-80
2022/01/01 02:59:56;;;;;;;137.15;59.42;;;;;;;;;;5070030;28;20488;-80
2022/01/01 03:02:22;;;;;;;137.82;59.35;;;;;;;;;;5045939;28;20075;-80
2022/01/01 03:04:48;;;;;;;139.30;60.50;;;;;;;;;;5052435;28;20097;-79
2022/01/01 03:07:15;;;;;;;145.73;61.75;;;;;;;;;;5069870;28;20047;-79
2022/01/01 03:09:41;;;;;;;144.05;62.95;;;;;;;;;;5055390;28;20511;-80
2022/01/01 03:12:11;;;;;;;168.45;66.30;;;;;;;;;;5049971;28;20161;-80
2022/01/01 03:14:37;;;;;;;155.63;65.53;;;;;;;;;;5049687;28;20053;-80
2022/01/01 03:17:07;;;;;;;155.77;67.25;;;;;;;;;;5049419;28;20126;-80
2022/01/01 03:19:33;;;;;;;157.07;66.32;;;;;;;;;;5049831;28;20481;-81
2022/01/01 03:22:00;;;;;;;142.55;64.45;;;;;;;;;;5033269;28;20500;-80
2022/01/01 03:24:27;;;;;;;150.80;66.97;;;;;;;;;;5049563;28;20056;-79
2022/01/01 03:26:53;;;;;;;169.38;67.65;;;;;;;;;;5050727;28;20128;-79
2022/01/01 03:29:19;;;;;;;170.50;68.82;;;;;;;;;;5032861;28;20041;-79
2022/01/01 03:31:45;;;;;;;162.75;70.57;;;;;;;;;;5064754;28;20103;-78
2022/01/01 03:34:11;;;;;;;160.68;70.75;;;;;;;;;;5069464;28;20123;-79
2022/01/01 03:36:37;;;;;;;174.10;69.93;;;;;;;;;;5069211;28;20079;-79
2022/01/01 03:39:04;;;;;;;163.20;70.05;;;;;;;;;;5051788;28;20045;-79
2022/01/01 03:41:30;;;;;;;163.90;69.82;;;;;;;;;;5052787;28;20044;-79
2022/01/01 03:43:56;;;;;;;170.65;71.85;;;;;;;;;;5052098;28;20048;-79
2022/01/01 03:46:22;;;;;;;166.45;72.50;;;;;;;;;;5051930;28;20044;-78
2022/01/01 03:48:49;;;;;;;165.40;70.50;;;;;;;;;;5069203;28;20476;-79
2022/01/01 03:51:15;;;;;;;165.38;69.13;;;;;;;;;;5069007;28;20051;-79
2022/01/01 03:53:41;;;;;;;161.73;67.55;;;;;;;;;;5069316;28;20083;-80
2022/01/01 03:56:07;;;;;;;155.30;68.45;;;;;;;;;;5069094;28;20037;-79
2022/01/01 03:58:34;;;;;;;150.13;65.15;;;;;;;;;;5068763;28;20408;-79
2022/01/01 04:01:00;;;;;;;150.88;62.30;;;;;;;;;;5052099;28;20119;-79
2022/01/01 04:03:26;;;;;;;144.73;61.30;;;;;;;;;;5052208;28;20037;-79
2022/01/01 04:05:52;;;;;;;148.70;59.35;;;;;;;;;;5068677;28;20181;-79
2022/01/01 04:08:18;;;;;;;141.90;56.25;;;;;;;;;;5070408;28;20076;-79
2022/01/01 04:10:44;;;;;;;130.20;55.08;;;;;;;;;;5069770;28;20047;-79
2022/01/01 04:13:11;;;;;;;128.85;52.13;;;;;;;;;;5051961;28;20130;-78
2022/01/01 04:15:37;;;;;;;125.43;51.05;;;;;;;;;;5068805;28;20052;-79
2022/01/01 04:18:09;;;;;;;122.47;48.35;;;;;;;;;;5068553;28;20048;-78
2022/01/01 04:20:35;;;;;;;120.40;46.80;;;;;;;;;;5068091;28;20127;-80
2022/01/01 04:23:01;;;;;;;122.55;47.78;;;;;;;;;;5068261;28;20098;-79
2022/01/01 04:25:28;;;;;;;122.22;47.83;;;;;;;;;;5068617;28;20036;-79
2022/01/01 04:27:55;;;;;;;120.72;44.55;;;;;;;;;;5051635;28;20044;-80
2022/01/01 04:30:21;;;;;;;114.10;44.95;;;;;;;;;;5068739;28;20044;-79
2022/01/01 04:32:48;;;;;;;121.45;43.58;;;;;;;;;;5069309;28;20040;-79
2022/01/01 04:35:15;;;;;;;123.88;41.55;;;;;;;;;;5068610;28;20048;-79
2022/01/01 04:37:41;;;;;;;114.20;40.67;;;;;;;;;;5051601;28;20055;-78
2022/01/01 04:40:08;;;;;;;116.70;39.38;;;;;;;;;;5068900;28;20087;-79
2022/01/01 04:42:34;;;;;;;107.28;36.30;;;;;;;;;;5068715;28;20052;-79
2022/01/01 04:45:00;;;;;;;109.75;35.10;;;;;;;;;;5035092;28;20049;-79
2022/01/01 04:47:26;;;;;;;110.07;34.45;;;;;;;;;;5069018;28;20076;-80
2022/01/01 04:49:53;;;;;;;104.55;34.20;;;;;;;;;;5068085;28;20044;-80
2022/01/01 04:52:19;;;;;;;98.88;32.03;;;;;;;;;;5068530;28;20075;-80
2022/01/01 04:54:45;;;;;;;96.78;29.63;;;;;;;;;;5068556;28;20490;-80
2022/01/01 04:57:12;;;;;;;90.63;28.33;;;;;;;;;;5068519;28;20040;-80
2022/01/01 04:59:39;;;;;;;83.70;26.50;;;;;;;;;;5068676;28;20373;-81
2022/01/01 05:02:05;;;;;;;92.00;28.38;;;;;;;;;;5046825;28;20460;-80
2022/01/01 05:04:31;;;;;;;95.25;26.75;;;;;;;;;;5067466;28;20127;-80
2022/01/01 05:06:58;;;;;;;90.82;26.42;;;;;;;;;;5050941;28;20084;-79
2022/01/01 05:09:24;;;;;;;90.00;27.75;;;;;;;;;;5051679;28;20044;-79
2022/01/01 05:11:50;;;;;;;79.68;24.77;;;;;;;;;;5067974;28;20035;-79
2022/01/01 05:14:17;;;;;;;81.65;26.00;;;;;;;;;;5054249;28;20481;-79
2022/01/01 05:16:43;;;;;;;84.47;24.90;;;;;;;;;;5071779;28;20104;-79
2022/01/01 05:19:09;;;;;;;77.35;24.58;;;;;;;;;;5071946;28;20047;-80
2022/01/01 05:21:36;;;;;;;82.50;25.15;;;;;;;;;;5072202;28;20044;-80
2022/01/01 05:24:06;;;;;;;85.57;25.05;;;;;;;;;;5055207;28;20381;-80
2022/01/01 05:26:33;;;;;;;67.97;23.27;;;;;;;;;;5055277;28;20043;-80
2022/01/01 05:28:59;;;;;;;76.05;22.67;;;;;;;;;;5071987;28;20550;-80
2022/01/01 05:31:26;;;;;;;78.25;22.67;;;;;;;;;;5072041;28;20044;-79
2022/01/01 05:33:53;;;;;;;76.53;23.58;;;;;;;;;;5071905;28;20381;-79
2022/01/01 05:36:19;;;;;;;72.05;22.55;;;;;;;;;;5055086;28;20044;-79
2022/01/01 05:38:46;;;;;;;61.55;21.30;;;;;;;;;;5071287;28;20044;-78
2022/01/01 05:41:13;;;;;;;66.78;20.30;;;;;;;;;;5071357;28;20072;-79
2022/01/01 05:43:39;;;;;;;70.85;21.25;;;;;;;;;;5071374;28;20129;-79
2022/01/01 05:46:05;;;;;;;56.72;19.25;;;;;;;;;;5105354;28;20052;-80
2022/01/01 05:48:32;;;;;;;66.63;20.42;;;;;;;;;;5054940;28;20051;-80
2022/01/01 05:50:58;;;;;;;66.45;19.52;;;;;;;;;;5070727;28;20111;-80
2022/01/01 05:53:25;;;;;;;62.35;19.10;;;;;;;;;;5054880;28;20479;-81
2022/01/01 05:55:51;;;;;;;61.80;20.23;;;;;;;;;;5054144;28;20127;-79
2022/01/01 05:58:17;;;;;;;56.55;19.05;;;;;;;;;;5071156;28;20121;-79
2022/01/01 06:00:44;;;;;;;55.65;19.98;;;;;;;;;;5054052;28;20045;-79
2022/01/01 06:03:10;;;;;;;67.30;19.20;;;;;;;;;;5071026;28;20178;-79
2022/01/01 06:05:37;;;;;;;57.33;19.23;;;;;;;;;;5071159;28;20086;-80
2022/01/01 06:08:04;;;;;;;61.70;20.00;;;;;;;;;;5070859;28;20056;-80
2022/01/01 06:10:30;;;;;;;57.97;18.75;;;;;;;;;;5071065;28;20048;-79
2022/01/01 06:12:56;;;;;;;62.47;19.30;;;;;;;;;;5070300;28;20036;-80
2022/01/01 06:15:22;;;;;;;65.50;19.73;;;;;;;;;;5070572;28;20503;-79
2022/01/01 06:17:48;;;;;;;58.47;19.38;;;;;;;;;;5071246;28;20037;-79
2022/01/01 06:20:15;;;;;;;62.63;20.30;;;;;;;;;;5070843;28;20074;-79
2022/01/01 06:22:42;;;;;;;56.45;19.90;;;;;;;;;;5053671;28;20105;-79
2022/01/01 06:25:08;;;;;;;60.92;20.30;;;;;;;;;;5072115;28;20044;-79
2022/01/01 06:27:34;;;;;;;60.97;20.17;;;;;;;;;;5072291;28;20162;-79
2022/01/01 06:30:01;;;;;;;54.28;20.88;;;;;;;;;;5070372;28;20150;-80
2022/01/01 06:32:30;;;;;;;57.60;19.98;;;;;;;;;;5070650;28;20036;-79
2022/01/01 06:34:56;;;;;;;57.90;20.95;;;;;;;;;;5069996;28;20070;-79
2022/01/01 06:37:22;;;;;;;56.92;22.08;;;;;;;;;;5070431;28;20044;-79
2022/01/01 06:39:49;;;;;;;60.80;21.23;;;;;;;;;;5053600;28;20143;-80
2022/01/01 06:42:15;;;;;;;58.67;21.88;;;;;;;;;;5070664;28;20064;-80
2022/01/01 06:44:42;;;;;;;64.30;22.20;;;;;;;;;;5070267;28;20435;-79
2022/01/01 06:47:09;;;;;;;58.28;21.85;;;;;;;;;;5070192;28;20135;-80
2022/01/01 06:49:35;;;;;;;54.58;20.15;;;;;;;;;;5070691;28;20076;-81
2022/01/01 06:52:01;;;;;;;67.75;22.30;;;;;;;;;;5053528;28;20487;-80
2022/01/01 06:54:28;;;;;;;55.92;21.83;;;;;;;;;;5070354;28;20048;-80
2022/01/01 06:56:54;;;;;;;56.58;22.02;;;;;;;;;;5071261;28;20083;-80
2022/01/01 06:59:20;;;;;;;54.90;20.92;;;;;;;;;;5053624;28;20095;-80
2022/01/01 07:01:46;;;;;;;54.47;21.95;;;;;;;;;;5069715;28;20068;-79
2022/01/01 07:04:12;;;;;;;49.60;22.02;;;;;;;;;;5071114;28;20044;-79
2022/01/01 07:06:38;;;;;;;59.67;22.85;;;;;;;;;;5069833;28;20098;-79
2022/01/01 07:09:04;;;;;;;52.08;22.67;;;;;;;;;;5069771;28;20045;-81
2022/01/01 07:11:30;;;;;;;57.20;22.92;;;;;;;;;;5069906;28;20040;-80
2022/01/01 07:13:56;;;;;;;52.95;22.25;;;;;;;;;;5069227;28;20515;-79
2022/01/01 07:16:23;;;;;;;55.70;22.42;;;;;;;;;;5053236;28;20493;-80
2022/01/01 07:18:49;;;;;;;58.80;23.45;;;;;;;;;;5053054;28;20056;-80
2022/01/01 07:21:15;;;;;;;55.22;22.27;;;;;;;;;;5069703;28;20052;-80
2022/01/01 07:23:42;;;;;;;54.63;22.70;;;;;;;;;;5053506;28;20552;-80
2022/01/01 07:26:09;;;;;;;54.60;22.80;;;;;;;;;;5069874;28;20048;-80
2022/01/01 07:28:35;;;;;;;54.10;21.92;;;;;;;;;;5053098;28;20491;-80
2022/01/01 07:31:01;;;;;;;55.38;23.83;;;;;;;;;;5070697;28;20045;-80
2022/01/01 07:33:27;;;;;;;63.88;23.80;;;;;;;;;;5069794;28;20036;-80
2022/01/01 07:35:55;;;;;;;56.33;22.45;;;;;;;;;;5068303;28;20131;-79
2022/01/01 07:38:22;;;;;;;61.08;22.77;;;;;;;;;;5069436;28;20466;-79
2022/01/01 07:40:48;;;;;;;57.50;22.13;;;;;;;;;;5068875;28;20056;-79
2022/01/01 07:43:16;;;;;;;64.03;23.65;;;;;;;;;;5068908;28;20094;-79
2022/01/01 07:45:42;;;;;;;63.85;23.77;;;;;;;;;;5068876;28;20520;-79
2022/01/01 07:48:09;;;;;;;60.00;24.58;;;;;;;;;;5068830;28;20040;-79
2022/01/01 07:50:36;;;;;;;57.05;23.92;;;;;;;;;;5069074;28;20097;-79
2022/01/01 07:53:02;;;;;;;60.03;23.88;;;;;;;;;;5051989;28;20052;-79
2022/01/01 07:55:28;;;;;;;60.83;23.60;;;;;;;;;;5068744;28;20056;-78
2022/01/01 07:57:55;;;;;;;58.38;24.85;;;;;;;;;;5069658;28;20090;-78
2022/01/01 08:00:21;;;;;;;58.33;23.67;;;;;;;;;;5052006;28;20039;-79
2022/01/01 08:02:47;;;;;;;65.68;25.10;;;;;;;;;;5068343;28;20472;-79
2022/01/01 08:05:17;;;;;;;57.88;24.10;;;;;;;;;;5068222;28;20076;-78
2022/01/01 08:07:44;;;;;;;63.35;24.00;;;;;;;;;;5051189;28;20040;-78
2022/01/01 08:10:10;;;;;;;64.35;24.70;;;;;;;;;;5068603;28;20036;-78
2022/01/01 08:12:36;;;;;;;54.53;23.80;;;;;;;;;;5052001;28;20040;-78
2022/01/01 08:15:03;;;;;;;57.38;23.02;;;;;;;;;;5068095;28;20060;-78
2022/01/01 08:17:30;;;;;;;54.40;22.85;;;;;;;;;;5069764;28;20147;-79
2022/01/01 08:19:57;;;;;;;47.45;21.88;;;;;;;;;;5051799;28;20036;-78
2022/01/01 08:22:24;;;;;;;52.97;22.13;;;;;;;;;;5069671;28;20044;-78
2022/01/01 08:24:50;;;;;;;54.13;22.02;;;;;;;;;;5068632;28;20476;-79
2022/01/01 08:27:16;;;;;;;54.65;22.20;;;;;;;;;;5069042;28;20411;-81
2022/01/01 08:29:43;;;;;;;50.95;21.85;;;;;;;;;;5068444;28;20044;-80
2022/01/01 08:32:09;;;;;;;60.75;22.38;;;;;;;;;;5068621;28;20128;-80
2022/01/01 08:34:35;;;;;;;51.33;22.08;;;;;;;;;;5052011;28;20055;-79
2022/01/01 08:37:02;;;;;;;53.03;21.08;;;;;;;;;;5068610;28;20431;-79
2022/01/01 08:39:28;;;;;;;60.17;21.65;;;;;;;;;;5068984;28;20119;-78
2022/01/01 08:41:54;;;;;;;51.88;21.83;;;;;;;;;;5068239;28;20136;-79
2022/01/01 08:44:20;;;;;;;50.72;20.58;;;;;;;;;;5068569;28;20502;-79
2022/01/01 08:46:46;;;;;;;46.63;21.23;;;;;;;;;;5068192;28;20040;-79
2022/01/01 08:49:12;;;;;;;52.05;20.65;;;;;;;;;;5071634;28;20124;-78
2022/01/01 08:51:41;;;;;;;53.30;21.00;;;;;;;;;;5056198;28;20036;-78
2022/01/01 08:54:07;;;;;;;47.70;18.92;;;;;;;;;;5072586;28;20041;-80
2022/01/01 08:56:33;;;;;;;45.45;18.02;;;;;;;;;;5056031;28;20049;-80
2022/01/01 08:58:59;;;;;;;39.90;18.52;;;;;;;;;;5072477;28;20082;-79
2022/01/01 09:01:26;;;;;;;42.47;17.90;;;;;;;;;;5056202;28;20052;-80
2022/01/01 09:03:52;;;;;;;38.72;16.15;;;;;;;;;;5072189;28;20048;-80
2022/01/01 09:06:18;;;;;;;37.13;15.23;;;;;;;;;;5072369;28;20041;-79
2022/01/01 09:08:44;;;;;;;37.13;15.80;;;;;;;;;;5055734;28;20093;-79
2022/01/01 09:11:11;;;;;;;35.30;15.32;;;;;;;;;;5072406;28;20044;-78
2022/01/01 09:13:42;;;;;;;34.70;15.27;;;;;;;;;;5071957;28;20047;-77
2022/01/01 09:16:16;;;;;;;35.30;15.20;;;;;;;;;;5055118;28;20123;-78
2022/01/01 09:18:43;;;;;;;42.50;15.82;;;;;;;;;;5073371;28;20082;-79
2022/01/01 09:21:10;;;;;;;38.42;14.73;;;;;;;;;;5055748;28;20052;-79
2022/01/01 09:23:36;;;;;;;40.58;15.63;;;;;;;;;;5055238;28;20040;-79
2022/01/01 09:26:02;;;;;;;37.75;15.43;;;;;;;;;;5071398;28;20124;-78
2022/01/01 09:28:32;;;;;;;33.50;14.70;;;;;;;;;;5071792;28;20124;-79
2022/01/01 09:30:59;;;;;;;32.00;15.00;;;;;;;;;;5071232;28;20040;-78
2022/01/01 09:33:29;;;;;;;33.78;15.05;;;;;;;;;;5072953;28;20067;-79
2022/01/01 09:35:56;;;;;;;40.95;15.48;;;;;;;;;;5055314;28;20487;-78
2022/01/01 09:38:22;;;;;;;30.13;14.13;;;;;;;;;;5071575;28;20115;-79
2022/01/01 09:40:48;;;;;;;31.80;14.77;;;;;;;;;;5071455;28;20036;-78
2022/01/01 09:43:15;;;;;;;28.33;13.63;;;;;;;;;;5071402;28;20400;-78
2022/01/01 09:45:41;;;;;;;29.88;13.20;;;;;;;;;;5071673;28;20135;-78
2022/01/01 09:48:08;;;;;;;30.65;13.23;;;;;;;;;;5054517;28;20482;-79
2022/01/01 09:50:35;;;;;;;34.17;13.25;;;;;;;;;;5072882;28;20033;-79
2022/01/01 09:53:01;;;;;;;30.55;13.25;;;;;;;;;;5070900;28;20333;-78
2022/01/01 09:55:28;;;;;;;31.20;12.70;;;;;;;;;;5071717;28;20044;-80
2022/01/01 09:57:54;;;;;;;29.60;12.10;;;;;;;;;;5072240;28;20040;-80
2022/01/01 10:00:20;;;;;;;24.95;11.93;;;;;;;;;;5070737;28;20119;-80
2022/01/01 10:02:46;;;;;;;22.52;11.50;;;;;;;;;;5071186;28;20496;-78
2022/01/01 10:05:12;;;;;;;24.05;11.88;;;;;;;;;;5071173;28;20473;-78
2022/01/01 10:07:38;;;;;;;28.23;11.85;;;;;;;;;;5071502;28;20396;-80
2022/01/01 10:10:17;;;;;;;23.30;11.60;;;;;;;;;;5054397;28;20072;-80
2022/01/01 10:12:43;;;;;;;28.02;11.32;;;;;;;;;;5071294;28;20099;-80
2022/01/01 10:15:10;;;;;;;26.13;11.15;;;;;;;;;;5070414;28;20526;-80
2022/01/01 10:17:37;;;;;;;23.38;10.73;;;;;;;;;;5070991;28;20106;-80
2022/01/01 10:20:03;;;;;;;23.80;10.85;;;;;;;;;;5070408;28;20097;-80
2022/01/01 10:22:29;;;;;;;21.77;10.00;;;;;;;;;;5072436;28;20506;-79
2022/01/01 10:27:56;;;;;;;23.23;9.77;;;;;;;;;;5070716;28;20053;-78
2022/01/01 10:30:36;;;;;;;24.42;10.02;;;;;;;;;;5070961;28;20119;-78
2022/01/01 10:33:03;;;;;;;22.13;9.80;;;;;;;;;;5070621;28;20045;-78
2022/01/01 10:35:33;;;;;;;19.52;9.52;;;;;;;;;;5070471;28;20052;-78
2022/01/01 10:37:59;;;;;;;26.27;9.05;;;;;;;;;;5069895;28;20040;-78
2022/01/01 10:40:26;;;;;;;18.23;8.40;;;;;;;;;;5070758;28;20072;-80
2022/01/01 10:42:53;;;;;;;19.60;8.70;;;;;;;;;;5070196;28;20044;-80
2022/01/01 10:45:29;;;;;;;20.02;9.25;;;;;;;;;;5070746;28;20045;-80
2022/01/01 10:48:39;;;;;;;20.67;8.90;;;;;;;;;;5071502;28;20050;-80
2022/01/01 10:51:09;;;;;;;21.70;8.98;;;;;;;;;;5065893;28;20052;-80
2022/01/01 10:53:36;;;;;;;21.02;8.68;;;;;;;;;;5070553;28;20032;-80
2022/01/01 10:56:03;;;;;;;20.33;8.63;;;;;;;;;;5071173;28;20079;-78
2022/01/01 10:58:32;;;;;;;18.15;8.70;;;;;;;;;;5054015;28;20094;-79
2022/01/01 11:01:02;;;;;;;20.75;8.77;;;;;;;;;;5069776;28;20075;-78
2022/01/01 11:03:28;;;;;;;20.35;7.97;;;;;;;;;;5071369;28;20041;-78
2022/01/01 11:06:08;;;;;;;21.98;9.40;;;;;;;;;;5071001;28;20044;-77
2022/01/01 11:08:35;;;;;;;15.60;7.75;;;;;;;;;;5053290;28;20052;-78
2022/01/01 11:11:02;;;;;;;18.30;7.18;;;;;;;;;;5068494;28;20540;-77
2022/01/01 11:13:28;;;;;;;20.20;7.85;;;;;;;;;;5070695;28;20078;-78
2022/01/01 11:15:54;;;;;;;13.25;7.25;;;;;;;;;;5069445;28;20079;-78
2022/01/01 11:18:22;;;;;;;20.10;8.52;;;;;;;;;;5069730;28;20044;-78
2022/01/01 11:20:50;;;;;;;19.45;7.10;;;;;;;;;;5070550;28;20476;-78
2022/01/01 11:23:16;;;;;;;13.80;6.82;;;;;;;;;;5052954;28;20047;-78
2022/01/01 11:25:42;;;;;;;16.15;6.68;;;;;;;;;;5053319;28;20086;-78
2022/01/01 11:28:10;;;;;;;16.35;6.22;;;;;;;;;;5069118;28;20055;-78
2022/01/01 11:30:38;;;;;;;10.77;6.05;;;;;;;;;;5069683;28;20033;-77
2022/01/01 11:33:09;;;;;;;14.88;6.35;;;;;;;;;;5069125;28;20045;-78
2022/01/01 11:35:37;;;;;;;14.75;6.10;;;;;;;;;;5052503;28;20045;-79
2022/01/01 11:38:03;;;;;;;13.73;6.22;;;;;;;;;;5069253;28;20398;-78
2022/01/01 11:40:33;;;;;;;15.48;6.03;;;;;;;;;;5070490;28;20439;-79
2022/01/01 11:43:00;;;;;;;14.00;5.60;;;;;;;;;;5070360;28;20036;-78
2022/01/01 11:45:43;;;;;;;12.98;5.60;;;;;;;;;;5052827;28;20044;-78
2022/01/01 11:48:28;;;;;;;14.73;5.55;;;;;;;;;;5068732;28;20109;-78
2022/01/01 11:50:55;;;;;;;15.53;5.90;;;;;;;;;;5068871;28;20475;-78
2022/01/01 11:53:31;;;;;;;13.98;6.50;;;;;;;;;;5069667;28;20476;-78
2022/01/01 11:56:03;;;;;;;16.75;6.85;;;;;;;;;;5068468;28;20098;-78
2022/01/01 11:58:45;;;;;;;14.73;6.93;;;;;;;;;;5052309;28;20109;-78
2022/01/01 12:01:11;;;;;;;13.50;5.60;;;;;;;;;;5068556;28;20127;-78
2022/01/01 12:03:49;;;;;;;14.85;6.10;;;;;;;;;;5068858;28;20044;-78
2022/01/01 12:06:16;;;;;;;16.92;5.30;;;;;;;;;;5068896;28;20266;-77
2022/01/01 12:08:43;;;;;;;12.48;5.50;;;;;;;;;;5070269;28;20033;-78
2022/01/01 12:11:09;;;;;;;15.77;6.20;;;;;;;;;;5068678;28;20043;-78
2022/01/01 12:13:38;;;;;;;15.50;6.13;;;;;;;;;;5068982;28;20098;-78
2022/01/01 12:16:20;;;;;;;16.63;6.85;;;;;;;;;;5068340;28;20060;-78
2022/01/01 12:18:46;;;;;;;14.50;5.93;;;;;;;;;;5069240;28;20442;-78
2022/01/01 12:21:19;;;;;;;16.33;6.50;;;;;;;;;;5068571;28;20046;-78
2022/01/01 12:23:48;;;;;;;10.93;5.97;;;;;;;;;;5068523;28;20097;-78
2022/01/01 12:26:15;;;;;;;15.75;6.30;;;;;;;;;;5068635;28;20063;-78
2022/01/01 12:28:43;;;;;;;14.52;6.57;;;;;;;;;;5068155;28;20048;-77
2022/01/01 12:31:12;;;;;;;15.50;6.30;;;;;;;;;;5069300;28;20048;-78
2022/01/01 12:33:39;;;;;;;14.43;6.22;;;;;;;;;;5068702;28;20230;-80
2022/01/01 12:36:08;;;;;;;13.75;6.35;;;;;;;;;;5068035;28;20052;-80
2022/01/01 12:38:39;;;;;;;14.90;6.78;;;;;;;;;;5068584;28;20048;-80
2022/01/01 12:41:05;;;;;;;15.85;6.35;;;;;;;;;;5068407;28;20060;-80
2022/01/01 12:43:52;;;;;;;18.08;7.07;;;;;;;;;;5069081;28;20044;-78
2022/01/01 12:46:20;;;;;;;17.33;7.25;;;;;;;;;;5068540;28;20048;-78
2022/01/01 12:48:47;;;;;;;13.07;7.20;;;;;;;;;;5068757;28;20048;-79
2022/01/01 12:51:14;;;;;;;21.23;7.72;;;;;;;;;;5069482;28;20043;-78
2022/01/01 12:53:41;;;;;;;15.35;7.15;;;;;;;;;;5068268;28;20047;-78
2022/01/01 12:56:11;;;;;;;15.45;6.80;;;;;;;;;;5051092;28;20149;-77
2022/01/01 12:58:45;;;;;;;14.68;7.07;;;;;;;;;;5068523;28;20555;-80
2022/01/01 13:01:31;;;;;;;15.05;6.95;;;;;;;;;;5068356;28;20452;-80
2022/01/01 13:04:01;;;;;;;15.05;6.82;;;;;;;;;;5068002;28;20454;-77
2022/01/01 13:06:32;;;;;;;16.13;6.82;;;;;;;;;;5051676;28;20080;-76
2022/01/01 13:09:03;;;;;;;17.83;7.68;;;;;;;;;;5068006;28;20127;-77
2022/01/01 13:11:29;;;;;;;13.27;7.07;;;;;;;;;;5069175;28;20094;-77
2022/01/01 13:13:56;;;;;;;14.70;7.95;;;;;;;;;;5066835;28;20044;-77
2022/01/01 13:16:22;;;;;;;12.50;7.85;;;;;;;;;;5067777;28;20056;-77
2022/01/01 13:18:48;;;;;;;14.45;8.30;;;;;;;;;;5051125;28;20055;-78
2022/01/01 13:21:15;;;;;;;16.63;7.75;;;;;;;;;;5067515;28;20094;-78
2022/01/01 13:23:41;;;;;;;18.80;7.88;;;;;;;;;;5068102;28;20044;-77
2022/01/01 13:26:07;;;;;;;16.77;7.50;;;;;;;;;;5050839;28;20098;-77
2022/01/01 13:28:35;;;;;;;18.10;7.93;;;;;;;;;;5068268;28;20124;-80
2022/01/01 13:31:03;;;;;;;15.55;7.65;;;;;;;;;;5067834;28;20063;-80
2022/01/01 13:33:29;;;;;;;16.38;8.00;;;;;;;;;;5069614;28;20123;-80
2022/01/01 13:35:57;;;;;;;16.55;8.05;;;;;;;;;;5071588;28;20484;-80
2022/01/01 13:38:24;;;;;;;12.57;7.07;;;;;;;;;;5072047;28;20476;-80
2022/01/01 13:40:51;;;;;;;16.25;8.18;;;;;;;;;;5071488;28;20040;-81
2022/01/01 13:43:18;;;;;;;16.73;7.78;;;;;;;;;;5055224;28;20492;-80
2022/01/01 13:45:44;;;;;;;15.18;7.70;;;;;;;;;;5072913;28;20036;-80
2022/01/01 13:48:11;;;;;;;15.75;8.18;;;;;;;;;;5072943;28;20089;-80
2022/01/01 13:50:39;;;;;;;16.88;7.65;;;;;;;;;;5055099;28;20044;-80
2022/01/01 13:53:07;;;;;;;16.50;8.43;;;;;;;;;;5071132;28;20063;-80
2022/01/01 13:55:33;;;;;;;16.55;8.00;;;;;;;;;;5054877;28;20484;-79
2022/01/01 13:58:02;;;;;;;15.77;8.27;;;;;;;;;;5071188;28;20088;-78
2022/01/01 14:00:28;;;;;;;16.23;8.40;;;;;;;;;;5071841;28;20156;-80
2022/01/01 14:02:54;;;;;;;14.90;8.63;;;;;;;;;;5070929;28;20052;-77
2022/01/01 14:05:22;;;;;;;13.35;8.20;;;;;;;;;;5071287;28;20498;-77
2022/01/01 14:07:49;;;;;;;17.48;8.25;;;;;;;;;;5070882;28;20079;-78
2022/01/01 14:10:16;;;;;;;20.00;8.40;;;;;;;;;;5071051;28;20044;-76
2022/01/01 14:12:42;;;;;;;14.80;8.60;;;;;;;;;;5070760;28;20048;-80
2022/01/01 14:15:13;;;;;;;17.90;8.20;;;;;;;;;;5070717;28;20052;-80
2022/01/01 14:17:50;;;;;;;15.60;8.15;;;;;;;;;;5071297;28;20388;-80
2022/01/01 14:20:23;;;;;;;16.40;8.27;;;;;;;;;;5071401;28;20044;-80
2022/01/01 14:22:49;;;;;;;16.92;8.45;;;;;;;;;;5070807;28;20044;-80
2022/01/01 14:25:15;;;;;;;17.05;8.38;;;;;;;;;;5070631;28;20044;-80